sensor_id;sensor_type;location;lat;lon;timestamp;P1;durP1;ratioP1;P2;durP2;ratioP2
41546;SDS011;27271;45.412;10.852;2022-07-29T00:01:55;3.28;;;2.10;;
41546;SDS011;27271;45.412;10.852;2022-07-29T00:05:17;5.28;;;2.03;;
41546;SDS011;27271;45.412;10.852;2022-07-29T00:08:39;4.50;;;2.63;;
41546;SDS011;27271;45.412;10.852;2022-07-29T00:12:01;3.40;;;1.92;;
41546;SDS011;27271;45.412;10.852;2022-07-29T00:15:23;5.10;;;2.38;;
41546;SDS011;27271;45.412;10.852;2022-07-29T00:18:45;3.40;;;2.20;;
41546;SDS011;27271;45.412;10.852;2022-07-29T00:22:08;4.25;;;2.28;;
41546;SDS011;27271;45.412;10.852;2022-07-29T00:25:30;3.33;;;2.25;;
41546;SDS011;27271;45.412;10.852;2022-07-29T00:28:54;3.40;;;2.35;;
41546;SDS011;27271;45.412;10.852;2022-07-29T00:32:36;2.83;;;2.05;;
41546;SDS011;27271;45.412;10.852;2022-07-29T00:35:58;5.75;;;2.85;;
41546;SDS011;27271;45.412;10.852;2022-07-29T00:39:20;6.47;;;2.50;;
41546;SDS011;27271;45.412;10.852;2022-07-29T00:42:43;6.40;;;2.45;;
41546;SDS011;27271;45.412;10.852;2022-07-29T00:46:09;3.60;;;2.35;;
41546;SDS011;27271;45.412;10.852;2022-07-29T00:49:32;4.38;;;2.55;;
41546;SDS011;27271;45.412;10.852;2022-07-29T00:52:55;5.03;;;2.38;;
41546;SDS011;27271;45.412;10.852;2022-07-29T00:56:17;2.72;;;1.60;;
41546;SDS011;27271;45.412;10.852;2022-07-29T00:59:39;2.45;;;1.70;;
41546;SDS011;27271;45.412;10.852;2022-07-29T01:03:02;3.95;;;1.88;;
41546;SDS011;27271;45.412;10.852;2022-07-29T01:06:25;4.05;;;2.38;;
41546;SDS011;27271;45.412;10.852;2022-07-29T01:09:48;5.10;;;1.55;;
41546;SDS011;27271;45.412;10.852;2022-07-29T01:13:10;3.28;;;1.77;;
41546;SDS011;27271;45.412;10.852;2022-07-29T01:16:35;2.17;;;1.73;;
41546;SDS011;27271;45.412;10.852;2022-07-29T01:20:26;2.13;;;1.40;;
41546;SDS011;27271;45.412;10.852;2022-07-29T01:35:22;1.98;;;1.60;;
41546;SDS011;27271;45.412;10.852;2022-07-29T01:38:50;2.15;;;1.67;;
41546;SDS011;27271;45.412;10.852;2022-07-29T01:45:59;2.30;;;1.70;;
41546;SDS011;27271;45.412;10.852;2022-07-29T01:49:25;4.65;;;2.20;;
41546;SDS011;27271;45.412;10.852;2022-07-29T01:52:54;4.47;;;1.50;;
41546;SDS011;27271;45.412;10.852;2022-07-29T01:56:19;1.85;;;1.42;;
41546;SDS011;27271;45.412;10.852;2022-07-29T01:59:43;3.40;;;1.73;;
41546;SDS011;27271;45.412;10.852;2022-07-29T02:03:09;2.60;;;1.60;;
41546;SDS011;27271;45.412;10.852;2022-07-29T02:06:34;2.10;;;1.50;;
41546;SDS011;27271;45.412;10.852;2022-07-29T02:10:00;3.20;;;1.83;;
41546;SDS011;27271;45.412;10.852;2022-07-29T02:13:25;2.65;;;1.52;;
41546;SDS011;27271;45.412;10.852;2022-07-29T02:16:50;3.05;;;1.60;;
41546;SDS011;27271;45.412;10.852;2022-07-29T02:20:15;2.95;;;1.58;;
41546;SDS011;27271;45.412;10.852;2022-07-29T02:23:38;2.63;;;1.70;;
41546;SDS011;27271;45.412;10.852;2022-07-29T02:27:11;1.85;;;1.55;;
41546;SDS011;27271;45.412;10.852;2022-07-29T02:30:36;2.38;;;1.67;;
41546;SDS011;27271;45.412;10.852;2022-07-29T02:34:02;2.17;;;1.40;;
41546;SDS011;27271;45.412;10.852;2022-07-29T02:37:26;2.53;;;1.30;;
41546;SDS011;27271;45.412;10.852;2022-07-29T02:40:49;2.72;;;1.42;;
41546;SDS011;27271;45.412;10.852;2022-07-29T02:44:14;1.75;;;1.20;;
41546;SDS011;27271;45.412;10.852;2022-07-29T02:47:40;3.30;;;1.50;;
41546;SDS011;27271;45.412;10.852;2022-07-29T02:51:07;3.67;;;1.85;;
41546;SDS011;27271;45.412;10.852;2022-07-29T02:54:55;3.13;;;1.92;;
41546;SDS011;27271;45.412;10.852;2022-07-29T02:58:44;2.38;;;1.88;;
41546;SDS011;27271;45.412;10.852;2022-07-29T03:02:10;4.80;;;1.88;;
41546;SDS011;27271;45.412;10.852;2022-07-29T03:05:35;4.78;;;1.65;;
41546;SDS011;27271;45.412;10.852;2022-07-29T03:08:59;3.05;;;1.80;;
41546;SDS011;27271;45.412;10.852;2022-07-29T03:12:22;2.85;;;1.67;;
41546;SDS011;27271;45.412;10.852;2022-07-29T03:15:44;4.90;;;2.00;;
41546;SDS011;27271;45.412;10.852;2022-07-29T03:19:09;2.90;;;1.65;;
41546;SDS011;27271;45.412;10.852;2022-07-29T03:22:31;2.75;;;1.70;;
41546;SDS011;27271;45.412;10.852;2022-07-29T03:25:54;3.50;;;1.73;;
41546;SDS011;27271;45.412;10.852;2022-07-29T03:29:17;3.78;;;2.17;;
41546;SDS011;27271;45.412;10.852;2022-07-29T03:32:40;3.35;;;2.15;;
41546;SDS011;27271;45.412;10.852;2022-07-29T03:36:05;5.25;;;2.10;;
41546;SDS011;27271;45.412;10.852;2022-07-29T03:39:27;2.90;;;2.17;;
41546;SDS011;27271;45.412;10.852;2022-07-29T03:42:52;2.90;;;1.80;;
41546;SDS011;27271;45.412;10.852;2022-07-29T03:46:16;3.00;;;1.65;;
41546;SDS011;27271;45.412;10.852;2022-07-29T03:49:42;2.42;;;1.50;;
41546;SDS011;27271;45.412;10.852;2022-07-29T03:53:08;3.35;;;2.03;;
41546;SDS011;27271;45.412;10.852;2022-07-29T03:56:32;2.92;;;1.85;;
41546;SDS011;27271;45.412;10.852;2022-07-29T03:59:58;3.45;;;2.17;;
41546;SDS011;27271;45.412;10.852;2022-07-29T04:03:24;3.55;;;2.10;;
41546;SDS011;27271;45.412;10.852;2022-07-29T04:06:47;3.70;;;2.20;;
41546;SDS011;27271;45.412;10.852;2022-07-29T04:10:09;3.40;;;2.20;;
41546;SDS011;27271;45.412;10.852;2022-07-29T04:13:31;3.47;;;2.58;;
41546;SDS011;27271;45.412;10.852;2022-07-29T04:16:54;4.20;;;2.40;;
41546;SDS011;27271;45.412;10.852;2022-07-29T04:20:16;4.80;;;2.13;;
41546;SDS011;27271;45.412;10.852;2022-07-29T04:23:38;5.38;;;2.13;;
41546;SDS011;27271;45.412;10.852;2022-07-29T04:27:13;3.03;;;2.00;;
41546;SDS011;27271;45.412;10.852;2022-07-29T04:30:36;2.75;;;1.92;;
41546;SDS011;27271;45.412;10.852;2022-07-29T04:33:59;3.42;;;2.35;;
41546;SDS011;27271;45.412;10.852;2022-07-29T04:37:21;4.68;;;2.30;;
41546;SDS011;27271;45.412;10.852;2022-07-29T04:40:43;2.85;;;1.95;;
41546;SDS011;27271;45.412;10.852;2022-07-29T04:44:05;3.38;;;2.58;;
41546;SDS011;27271;45.412;10.852;2022-07-29T04:47:29;3.08;;;2.65;;
41546;SDS011;27271;45.412;10.852;2022-07-29T04:50:51;4.25;;;2.90;;
41546;SDS011;27271;45.412;10.852;2022-07-29T04:54:13;3.53;;;2.58;;
41546;SDS011;27271;45.412;10.852;2022-07-29T04:57:35;5.22;;;2.70;;
41546;SDS011;27271;45.412;10.852;2022-07-29T05:00:57;3.95;;;2.22;;
41546;SDS011;27271;45.412;10.852;2022-07-29T05:04:20;2.65;;;1.98;;
41546;SDS011;27271;45.412;10.852;2022-07-29T05:07:42;4.30;;;2.00;;
41546;SDS011;27271;45.412;10.852;2022-07-29T05:11:04;2.85;;;2.03;;
41546;SDS011;27271;45.412;10.852;2022-07-29T05:14:33;2.60;;;2.00;;
41546;SDS011;27271;45.412;10.852;2022-07-29T05:17:55;4.40;;;2.20;;
41546;SDS011;27271;45.412;10.852;2022-07-29T05:21:17;2.60;;;1.80;;
41546;SDS011;27271;45.412;10.852;2022-07-29T05:24:39;6.28;;;2.40;;
41546;SDS011;27271;45.412;10.852;2022-07-29T05:28:02;3.22;;;2.03;;
41546;SDS011;27271;45.412;10.852;2022-07-29T05:31:24;2.80;;;1.77;;
41546;SDS011;27271;45.412;10.852;2022-07-29T05:34:46;4.03;;;2.08;;
41546;SDS011;27271;45.412;10.852;2022-07-29T05:38:12;3.33;;;1.80;;
41546;SDS011;27271;45.412;10.852;2022-07-29T05:41:34;3.90;;;2.47;;
41546;SDS011;27271;45.412;10.852;2022-07-29T05:44:56;2.42;;;2.22;;
41546;SDS011;27271;45.412;10.852;2022-07-29T05:48:18;2.40;;;2.00;;
41546;SDS011;27271;45.412;10.852;2022-07-29T05:51:41;3.35;;;2.40;;
41546;SDS011;27271;45.412;10.852;2022-07-29T05:55:03;5.07;;;2.53;;
41546;SDS011;27271;45.412;10.852;2022-07-29T05:58:27;3.22;;;2.03;;
41546;SDS011;27271;45.412;10.852;2022-07-29T06:01:49;4.38;;;2.60;;
41546;SDS011;27271;45.412;10.852;2022-07-29T06:05:11;5.60;;;3.58;;
41546;SDS011;27271;45.412;10.852;2022-07-29T06:08:37;2.53;;;2.20;;
41546;SDS011;27271;45.412;10.852;2022-07-29T06:12:00;4.88;;;2.50;;
41546;SDS011;27271;45.412;10.852;2022-07-29T06:15:22;3.35;;;2.28;;
41546;SDS011;27271;45.412;10.852;2022-07-29T06:18:44;2.95;;;2.30;;
41546;SDS011;27271;45.412;10.852;2022-07-29T06:22:06;3.30;;;2.25;;
41546;SDS011;27271;45.412;10.852;2022-07-29T06:25:28;3.17;;;2.40;;
41546;SDS011;27271;45.412;10.852;2022-07-29T06:28:51;2.90;;;2.50;;
41546;SDS011;27271;45.412;10.852;2022-07-29T06:32:13;5.07;;;2.72;;
41546;SDS011;27271;45.412;10.852;2022-07-29T06:35:35;2.45;;;2.25;;
41546;SDS011;27271;45.412;10.852;2022-07-29T06:39:04;3.22;;;2.38;;
41546;SDS011;27271;45.412;10.852;2022-07-29T06:42:27;4.95;;;2.85;;
41546;SDS011;27271;45.412;10.852;2022-07-29T06:45:50;3.97;;;2.90;;
41546;SDS011;27271;45.412;10.852;2022-07-29T06:49:12;4.88;;;2.75;;
41546;SDS011;27271;45.412;10.852;2022-07-29T06:52:35;3.42;;;2.33;;
41546;SDS011;27271;45.412;10.852;2022-07-29T06:56:01;3.67;;;2.90;;
41546;SDS011;27271;45.412;10.852;2022-07-29T06:59:24;4.68;;;2.50;;
41546;SDS011;27271;45.412;10.852;2022-07-29T07:02:55;5.22;;;2.90;;
41546;SDS011;27271;45.412;10.852;2022-07-29T07:06:18;6.22;;;3.03;;
41546;SDS011;27271;45.412;10.852;2022-07-29T07:09:40;3.55;;;2.53;;
41546;SDS011;27271;45.412;10.852;2022-07-29T07:13:02;5.10;;;2.70;;
41546;SDS011;27271;45.412;10.852;2022-07-29T07:16:26;6.03;;;2.65;;
41546;SDS011;27271;45.412;10.852;2022-07-29T07:19:48;4.38;;;3.42;;
41546;SDS011;27271;45.412;10.852;2022-07-29T07:23:10;3.92;;;2.35;;
41546;SDS011;27271;45.412;10.852;2022-07-29T07:26:32;5.15;;;2.75;;
41546;SDS011;27271;45.412;10.852;2022-07-29T07:29:55;3.10;;;2.25;;
41546;SDS011;27271;45.412;10.852;2022-07-29T07:33:17;3.25;;;2.40;;
41546;SDS011;27271;45.412;10.852;2022-07-29T07:36:39;3.38;;;2.05;;
41546;SDS011;27271;45.412;10.852;2022-07-29T07:40:01;3.28;;;2.28;;
41546;SDS011;27271;45.412;10.852;2022-07-29T07:43:24;5.15;;;2.50;;
41546;SDS011;27271;45.412;10.852;2022-07-29T07:46:46;3.88;;;2.53;;
41546;SDS011;27271;45.412;10.852;2022-07-29T07:50:09;2.50;;;2.30;;
41546;SDS011;27271;45.412;10.852;2022-07-29T07:53:38;2.88;;;2.33;;
41546;SDS011;27271;45.412;10.852;2022-07-29T07:57:01;7.57;;;2.58;;
41546;SDS011;27271;45.412;10.852;2022-07-29T08:00:23;2.92;;;2.35;;
41546;SDS011;27271;45.412;10.852;2022-07-29T08:03:45;3.20;;;2.80;;
41546;SDS011;27271;45.412;10.852;2022-07-29T08:07:07;4.25;;;2.42;;
41546;SDS011;27271;45.412;10.852;2022-07-29T08:10:30;4.35;;;3.20;;
41546;SDS011;27271;45.412;10.852;2022-07-29T08:14:11;3.25;;;2.78;;
41546;SDS011;27271;45.412;10.852;2022-07-29T08:17:34;3.13;;;2.60;;
41546;SDS011;27271;45.412;10.852;2022-07-29T08:20:56;5.38;;;2.60;;
41546;SDS011;27271;45.412;10.852;2022-07-29T08:24:20;4.40;;;3.00;;
41546;SDS011;27271;45.412;10.852;2022-07-29T08:28:01;3.00;;;2.70;;
41546;SDS011;27271;45.412;10.852;2022-07-29T08:31:23;3.67;;;2.60;;
41546;SDS011;27271;45.412;10.852;2022-07-29T08:34:46;3.67;;;2.25;;
41546;SDS011;27271;45.412;10.852;2022-07-29T08:38:08;4.15;;;3.00;;
41546;SDS011;27271;45.412;10.852;2022-07-29T08:41:30;4.05;;;2.30;;
41546;SDS011;27271;45.412;10.852;2022-07-29T08:44:53;3.13;;;2.42;;
41546;SDS011;27271;45.412;10.852;2022-07-29T08:48:17;4.15;;;2.50;;
41546;SDS011;27271;45.412;10.852;2022-07-29T08:51:42;4.97;;;3.00;;
41546;SDS011;27271;45.412;10.852;2022-07-29T08:55:10;2.60;;;2.40;;
41546;SDS011;27271;45.412;10.852;2022-07-29T08:58:33;3.67;;;2.80;;
41546;SDS011;27271;45.412;10.852;2022-07-29T09:02:01;2.70;;;2.50;;
41546;SDS011;27271;45.412;10.852;2022-07-29T09:05:31;3.17;;;2.35;;
41546;SDS011;27271;45.412;10.852;2022-07-29T09:09:01;2.90;;;2.50;;
41546;SDS011;27271;45.412;10.852;2022-07-29T09:12:26;6.13;;;2.80;;
41546;SDS011;27271;45.412;10.852;2022-07-29T09:15:53;6.07;;;2.95;;
41546;SDS011;27271;45.412;10.852;2022-07-29T09:19:26;4.40;;;2.60;;
41546;SDS011;27271;45.412;10.852;2022-07-29T09:22:51;3.35;;;2.78;;
41546;SDS011;27271;45.412;10.852;2022-07-29T09:26:15;3.05;;;2.20;;
41546;SDS011;27271;45.412;10.852;2022-07-29T09:29:37;2.95;;;2.65;;
41546;SDS011;27271;45.412;10.852;2022-07-29T09:33:01;4.35;;;2.60;;
41546;SDS011;27271;45.412;10.852;2022-07-29T09:36:24;4.53;;;2.85;;
41546;SDS011;27271;45.412;10.852;2022-07-29T09:39:46;4.70;;;3.70;;
41546;SDS011;27271;45.412;10.852;2022-07-29T09:43:12;3.78;;;3.05;;
41546;SDS011;27271;45.412;10.852;2022-07-29T09:46:34;3.53;;;2.88;;
41546;SDS011;27271;45.412;10.852;2022-07-29T09:49:58;3.03;;;2.72;;
41546;SDS011;27271;45.412;10.852;2022-07-29T09:53:34;3.40;;;3.03;;
41546;SDS011;27271;45.412;10.852;2022-07-29T09:56:58;4.00;;;2.95;;
41546;SDS011;27271;45.412;10.852;2022-07-29T10:00:20;3.63;;;3.33;;
41546;SDS011;27271;45.412;10.852;2022-07-29T10:03:51;2.65;;;2.45;;
41546;SDS011;27271;45.412;10.852;2022-07-29T10:10:37;3.15;;;2.67;;
41546;SDS011;27271;45.412;10.852;2022-07-29T10:14:03;4.13;;;3.15;;
41546;SDS011;27271;45.412;10.852;2022-07-29T10:17:27;3.17;;;2.85;;
41546;SDS011;27271;45.412;10.852;2022-07-29T10:20:50;3.33;;;2.97;;
41546;SDS011;27271;45.412;10.852;2022-07-29T10:24:12;4.40;;;2.60;;
41546;SDS011;27271;45.412;10.852;2022-07-29T10:27:35;5.43;;;3.25;;
41546;SDS011;27271;45.412;10.852;2022-07-29T10:31:07;3.80;;;3.00;;
41546;SDS011;27271;45.412;10.852;2022-07-29T10:42:14;3.40;;;3.10;;
41546;SDS011;27271;45.412;10.852;2022-07-29T10:45:55;3.08;;;2.75;;
41546;SDS011;27271;45.412;10.852;2022-07-29T10:49:23;3.30;;;2.85;;
41546;SDS011;27271;45.412;10.852;2022-07-29T10:56:28;3.58;;;3.08;;
41546;SDS011;27271;45.412;10.852;2022-07-29T11:07:11;3.22;;;2.92;;
41546;SDS011;27271;45.412;10.852;2022-07-29T11:10:35;3.50;;;2.95;;
41546;SDS011;27271;45.412;10.852;2022-07-29T11:13:59;3.80;;;3.20;;
41546;SDS011;27271;45.412;10.852;2022-07-29T11:17:21;3.40;;;3.08;;
41546;SDS011;27271;45.412;10.852;2022-07-29T11:20:45;4.60;;;2.95;;
41546;SDS011;27271;45.412;10.852;2022-07-29T11:24:17;6.50;;;3.80;;
41546;SDS011;27271;45.412;10.852;2022-07-29T11:27:54;2.83;;;2.53;;
41546;SDS011;27271;45.412;10.852;2022-07-29T11:38:38;5.85;;;4.05;;
41546;SDS011;27271;45.412;10.852;2022-07-29T11:45:53;4.18;;;3.17;;
41546;SDS011;27271;45.412;10.852;2022-07-29T11:49:21;3.78;;;3.30;;
41546;SDS011;27271;45.412;10.852;2022-07-29T11:52:53;3.35;;;3.05;;
41546;SDS011;27271;45.412;10.852;2022-07-29T11:56:16;5.10;;;3.58;;
41546;SDS011;27271;45.412;10.852;2022-07-29T11:59:46;4.22;;;3.28;;
41546;SDS011;27271;45.412;10.852;2022-07-29T12:03:09;4.88;;;3.20;;
41546;SDS011;27271;45.412;10.852;2022-07-29T12:06:33;3.63;;;3.10;;
41546;SDS011;27271;45.412;10.852;2022-07-29T12:09:56;2.97;;;2.60;;
41546;SDS011;27271;45.412;10.852;2022-07-29T12:13:19;4.30;;;3.20;;
41546;SDS011;27271;45.412;10.852;2022-07-29T12:16:42;3.33;;;3.03;;
41546;SDS011;27271;45.412;10.852;2022-07-29T12:20:04;3.75;;;3.00;;
41546;SDS011;27271;45.412;10.852;2022-07-29T12:23:28;3.63;;;3.10;;
41546;SDS011;27271;45.412;10.852;2022-07-29T12:26:56;4.68;;;3.10;;
41546;SDS011;27271;45.412;10.852;2022-07-29T12:30:19;4.28;;;3.20;;
41546;SDS011;27271;45.412;10.852;2022-07-29T12:33:42;3.78;;;3.03;;
41546;SDS011;27271;45.412;10.852;2022-07-29T12:37:14;3.42;;;3.13;;
41546;SDS011;27271;45.412;10.852;2022-07-29T12:40:37;3.13;;;2.83;;
41546;SDS011;27271;45.412;10.852;2022-07-29T12:44:00;3.53;;;3.05;;
41546;SDS011;27271;45.412;10.852;2022-07-29T12:47:22;4.20;;;3.30;;
41546;SDS011;27271;45.412;10.852;2022-07-29T12:50:51;3.70;;;2.78;;
41546;SDS011;27271;45.412;10.852;2022-07-29T12:54:18;6.28;;;3.17;;
41546;SDS011;27271;45.412;10.852;2022-07-29T12:57:44;4.35;;;3.55;;
41546;SDS011;27271;45.412;10.852;2022-07-29T13:08:09;3.47;;;2.83;;
41546;SDS011;27271;45.412;10.852;2022-07-29T13:11:45;3.50;;;2.90;;
41546;SDS011;27271;45.412;10.852;2022-07-29T13:15:13;4.22;;;3.65;;
41546;SDS011;27271;45.412;10.852;2022-07-29T13:18:36;3.47;;;3.10;;
41546;SDS011;27271;45.412;10.852;2022-07-29T13:21:58;3.00;;;2.80;;
41546;SDS011;27271;45.412;10.852;2022-07-29T13:25:28;3.95;;;3.05;;
41546;SDS011;27271;45.412;10.852;2022-07-29T13:28:51;4.63;;;2.85;;
41546;SDS011;27271;45.412;10.852;2022-07-29T13:32:13;5.53;;;4.10;;
41546;SDS011;27271;45.412;10.852;2022-07-29T13:35:36;6.55;;;3.60;;
41546;SDS011;27271;45.412;10.852;2022-07-29T13:39:00;3.88;;;3.50;;
41546;SDS011;27271;45.412;10.852;2022-07-29T13:42:23;4.45;;;2.95;;
41546;SDS011;27271;45.412;10.852;2022-07-29T13:45:46;3.75;;;3.35;;
41546;SDS011;27271;45.412;10.852;2022-07-29T13:49:08;3.13;;;2.63;;
41546;SDS011;27271;45.412;10.852;2022-07-29T13:52:32;5.40;;;3.42;;
41546;SDS011;27271;45.412;10.852;2022-07-29T13:55:55;4.82;;;3.35;;
41546;SDS011;27271;45.412;10.852;2022-07-29T13:59:18;3.75;;;3.05;;
41546;SDS011;27271;45.412;10.852;2022-07-29T14:02:40;6.07;;;3.88;;
41546;SDS011;27271;45.412;10.852;2022-07-29T14:06:02;4.50;;;3.78;;
41546;SDS011;27271;45.412;10.852;2022-07-29T14:09:25;6.00;;;3.95;;
41546;SDS011;27271;45.412;10.852;2022-07-29T14:12:47;4.38;;;3.67;;
41546;SDS011;27271;45.412;10.852;2022-07-29T14:16:09;4.68;;;3.33;;
41546;SDS011;27271;45.412;10.852;2022-07-29T14:19:31;4.50;;;3.30;;
41546;SDS011;27271;45.412;10.852;2022-07-29T14:22:56;4.35;;;3.30;;
41546;SDS011;27271;45.412;10.852;2022-07-29T14:26:18;4.38;;;3.47;;
41546;SDS011;27271;45.412;10.852;2022-07-29T14:29:44;4.38;;;3.30;;
41546;SDS011;27271;45.412;10.852;2022-07-29T14:33:06;4.35;;;3.15;;
41546;SDS011;27271;45.412;10.852;2022-07-29T14:36:29;3.70;;;3.40;;
41546;SDS011;27271;45.412;10.852;2022-07-29T14:39:51;3.50;;;3.20;;
41546;SDS011;27271;45.412;10.852;2022-07-29T14:43:13;7.97;;;3.80;;
41546;SDS011;27271;45.412;10.852;2022-07-29T14:46:36;5.55;;;3.88;;
41546;SDS011;27271;45.412;10.852;2022-07-29T14:49:58;5.55;;;3.72;;
41546;SDS011;27271;45.412;10.852;2022-07-29T14:53:20;6.03;;;3.80;;
41546;SDS011;27271;45.412;10.852;2022-07-29T14:56:42;4.65;;;3.38;;
41546;SDS011;27271;45.412;10.852;2022-07-29T15:00:07;3.70;;;3.17;;
41546;SDS011;27271;45.412;10.852;2022-07-29T15:03:31;3.17;;;2.80;;
41546;SDS011;27271;45.412;10.852;2022-07-29T15:06:54;7.47;;;3.60;;
41546;SDS011;27271;45.412;10.852;2022-07-29T15:10:16;4.63;;;3.83;;
41546;SDS011;27271;45.412;10.852;2022-07-29T15:13:39;4.57;;;3.15;;
41546;SDS011;27271;45.412;10.852;2022-07-29T15:17:01;3.67;;;3.22;;
41546;SDS011;27271;45.412;10.852;2022-07-29T15:20:24;7.68;;;3.30;;
41546;SDS011;27271;45.412;10.852;2022-07-29T15:23:48;6.05;;;3.45;;
41546;SDS011;27271;45.412;10.852;2022-07-29T15:27:10;5.22;;;3.58;;
41546;SDS011;27271;45.412;10.852;2022-07-29T15:30:35;4.35;;;3.53;;
41546;SDS011;27271;45.412;10.852;2022-07-29T15:34:02;3.72;;;3.08;;
41546;SDS011;27271;45.412;10.852;2022-07-29T15:37:26;10.52;;;4.22;;
41546;SDS011;27271;45.412;10.852;2022-07-29T15:41:12;4.05;;;3.05;;
41546;SDS011;27271;45.412;10.852;2022-07-29T15:44:35;5.68;;;3.30;;
41546;SDS011;27271;45.412;10.852;2022-07-29T15:47:57;4.28;;;3.35;;
41546;SDS011;27271;45.412;10.852;2022-07-29T15:51:19;5.72;;;3.50;;
41546;SDS011;27271;45.412;10.852;2022-07-29T15:54:42;4.70;;;3.70;;
41546;SDS011;27271;45.412;10.852;2022-07-29T15:58:05;6.50;;;3.90;;
41546;SDS011;27271;45.412;10.852;2022-07-29T16:01:27;4.57;;;3.90;;
41546;SDS011;27271;45.412;10.852;2022-07-29T16:04:49;14.85;;;4.28;;
41546;SDS011;27271;45.412;10.852;2022-07-29T16:08:11;5.63;;;4.10;;
41546;SDS011;27271;45.412;10.852;2022-07-29T16:11:33;6.22;;;4.78;;
41546;SDS011;27271;45.412;10.852;2022-07-29T16:14:55;8.60;;;4.43;;
41546;SDS011;27271;45.412;10.852;2022-07-29T16:18:17;7.20;;;4.45;;
41546;SDS011;27271;45.412;10.852;2022-07-29T16:21:39;8.18;;;5.22;;
41546;SDS011;27271;45.412;10.852;2022-07-29T16:25:01;7.88;;;4.90;;
41546;SDS011;27271;45.412;10.852;2022-07-29T16:28:24;7.07;;;5.03;;
41546;SDS011;27271;45.412;10.852;2022-07-29T16:31:46;7.28;;;5.10;;
41546;SDS011;27271;45.412;10.852;2022-07-29T16:35:10;9.18;;;6.97;;
41546;SDS011;27271;45.412;10.852;2022-07-29T16:38:32;8.00;;;5.63;;
41546;SDS011;27271;45.412;10.852;2022-07-29T16:41:56;10.55;;;5.72;;
41546;SDS011;27271;45.412;10.852;2022-07-29T16:45:21;8.57;;;5.93;;
41546;SDS011;27271;45.412;10.852;2022-07-29T16:48:44;10.18;;;6.00;;
41546;SDS011;27271;45.412;10.852;2022-07-29T16:52:06;9.82;;;6.70;;
41546;SDS011;27271;45.412;10.852;2022-07-29T16:55:28;11.48;;;6.68;;
41546;SDS011;27271;45.412;10.852;2022-07-29T16:58:50;26.48;;;9.10;;
41546;SDS011;27271;45.412;10.852;2022-07-29T17:02:12;13.98;;;7.38;;
41546;SDS011;27271;45.412;10.852;2022-07-29T17:05:34;11.57;;;7.43;;
41546;SDS011;27271;45.412;10.852;2022-07-29T17:09:14;15.35;;;8.82;;
41546;SDS011;27271;45.412;10.852;2022-07-29T17:12:38;12.38;;;8.85;;
41546;SDS011;27271;45.412;10.852;2022-07-29T17:16:01;13.93;;;8.02;;
41546;SDS011;27271;45.412;10.852;2022-07-29T17:19:23;10.63;;;8.25;;
41546;SDS011;27271;45.412;10.852;2022-07-29T17:22:45;18.23;;;9.73;;
41546;SDS011;27271;45.412;10.852;2022-07-29T17:26:07;13.38;;;8.82;;
41546;SDS011;27271;45.412;10.852;2022-07-29T17:29:30;12.82;;;8.60;;
41546;SDS011;27271;45.412;10.852;2022-07-29T17:32:51;8.43;;;5.20;;
41546;SDS011;27271;45.412;10.852;2022-07-29T17:36:15;6.95;;;4.72;;
41546;SDS011;27271;45.412;10.852;2022-07-29T17:39:47;6.70;;;4.63;;
41546;SDS011;27271;45.412;10.852;2022-07-29T17:43:09;6.63;;;4.45;;
41546;SDS011;27271;45.412;10.852;2022-07-29T17:46:31;7.80;;;4.53;;
41546;SDS011;27271;45.412;10.852;2022-07-29T17:49:53;8.18;;;5.05;;
41546;SDS011;27271;45.412;10.852;2022-07-29T17:53:15;7.82;;;4.85;;
41546;SDS011;27271;45.412;10.852;2022-07-29T17:56:37;8.32;;;4.78;;
41546;SDS011;27271;45.412;10.852;2022-07-29T17:59:59;6.50;;;4.53;;
41546;SDS011;27271;45.412;10.852;2022-07-29T18:03:25;7.47;;;3.70;;
41546;SDS011;27271;45.412;10.852;2022-07-29T18:06:47;4.63;;;3.70;;
41546;SDS011;27271;45.412;10.852;2022-07-29T18:10:09;5.78;;;3.53;;
41546;SDS011;27271;45.412;10.852;2022-07-29T18:13:31;3.80;;;3.40;;
41546;SDS011;27271;45.412;10.852;2022-07-29T18:16:53;5.40;;;3.70;;
41546;SDS011;27271;45.412;10.852;2022-07-29T18:20:16;5.18;;;3.80;;
41546;SDS011;27271;45.412;10.852;2022-07-29T18:23:38;6.10;;;3.35;;
41546;SDS011;27271;45.412;10.852;2022-07-29T18:27:00;5.50;;;3.85;;
41546;SDS011;27271;45.412;10.852;2022-07-29T18:30:23;8.32;;;3.90;;
41546;SDS011;27271;45.412;10.852;2022-07-29T18:33:45;7.18;;;3.72;;
41546;SDS011;27271;45.412;10.852;2022-07-29T18:37:07;4.60;;;3.42;;
41546;SDS011;27271;45.412;10.852;2022-07-29T18:40:29;7.75;;;4.18;;
41546;SDS011;27271;45.412;10.852;2022-07-29T18:43:52;5.88;;;3.72;;
41546;SDS011;27271;45.412;10.852;2022-07-29T18:47:14;5.22;;;3.90;;
41546;SDS011;27271;45.412;10.852;2022-07-29T18:50:37;5.78;;;3.50;;
41546;SDS011;27271;45.412;10.852;2022-07-29T18:53:59;6.57;;;3.80;;
41546;SDS011;27271;45.412;10.852;2022-07-29T18:57:21;8.10;;;3.53;;
41546;SDS011;27271;45.412;10.852;2022-07-29T19:01:04;4.93;;;3.90;;
41546;SDS011;27271;45.412;10.852;2022-07-29T19:04:26;7.85;;;3.97;;
41546;SDS011;27271;45.412;10.852;2022-07-29T19:07:48;4.80;;;3.22;;
41546;SDS011;27271;45.412;10.852;2022-07-29T19:11:11;6.35;;;3.30;;
41546;SDS011;27271;45.412;10.852;2022-07-29T19:14:36;6.85;;;3.78;;
41546;SDS011;27271;45.412;10.852;2022-07-29T19:17:58;5.93;;;3.40;;
41546;SDS011;27271;45.412;10.852;2022-07-29T19:21:21;6.43;;;3.42;;
41546;SDS011;27271;45.412;10.852;2022-07-29T19:24:45;5.85;;;3.55;;
41546;SDS011;27271;45.412;10.852;2022-07-29T19:28:07;5.85;;;3.30;;
41546;SDS011;27271;45.412;10.852;2022-07-29T19:31:29;6.90;;;3.88;;
41546;SDS011;27271;45.412;10.852;2022-07-29T19:34:52;6.50;;;3.95;;
41546;SDS011;27271;45.412;10.852;2022-07-29T19:38:32;6.78;;;4.35;;
41546;SDS011;27271;45.412;10.852;2022-07-29T19:41:54;7.88;;;4.40;;
41546;SDS011;27271;45.412;10.852;2022-07-29T19:45:23;8.52;;;4.95;;
41546;SDS011;27271;45.412;10.852;2022-07-29T19:48:46;8.43;;;5.50;;
41546;SDS011;27271;45.412;10.852;2022-07-29T19:52:08;9.25;;;5.43;;
41546;SDS011;27271;45.412;10.852;2022-07-29T19:55:30;9.02;;;6.03;;
41546;SDS011;27271;45.412;10.852;2022-07-29T19:58:53;8.52;;;5.93;;
41546;SDS011;27271;45.412;10.852;2022-07-29T20:02:15;10.55;;;6.95;;
41546;SDS011;27271;45.412;10.852;2022-07-29T20:05:37;11.20;;;6.95;;
41546;SDS011;27271;45.412;10.852;2022-07-29T20:08:59;12.18;;;6.85;;
41546;SDS011;27271;45.412;10.852;2022-07-29T20:12:21;9.00;;;6.53;;
41546;SDS011;27271;45.412;10.852;2022-07-29T20:15:43;11.95;;;6.03;;
41546;SDS011;27271;45.412;10.852;2022-07-29T20:19:07;7.65;;;5.20;;
41546;SDS011;27271;45.412;10.852;2022-07-29T20:22:30;8.13;;;5.07;;
41546;SDS011;27271;45.412;10.852;2022-07-29T20:25:52;8.88;;;4.93;;
41546;SDS011;27271;45.412;10.852;2022-07-29T20:29:15;6.65;;;5.20;;
41546;SDS011;27271;45.412;10.852;2022-07-29T20:32:38;6.35;;;4.53;;
41546;SDS011;27271;45.412;10.852;2022-07-29T20:36:01;8.93;;;5.70;;
41546;SDS011;27271;45.412;10.852;2022-07-29T20:39:23;8.35;;;5.55;;
41546;SDS011;27271;45.412;10.852;2022-07-29T20:42:45;8.18;;;5.18;;
41546;SDS011;27271;45.412;10.852;2022-07-29T20:46:07;8.35;;;4.82;;
41546;SDS011;27271;45.412;10.852;2022-07-29T20:49:29;8.43;;;5.00;;
41546;SDS011;27271;45.412;10.852;2022-07-29T20:52:51;8.65;;;5.05;;
41546;SDS011;27271;45.412;10.852;2022-07-29T20:56:13;10.00;;;4.05;;
41546;SDS011;27271;45.412;10.852;2022-07-29T20:59:35;9.20;;;4.40;;
41546;SDS011;27271;45.412;10.852;2022-07-29T21:03:00;7.15;;;3.78;;
41546;SDS011;27271;45.412;10.852;2022-07-29T21:06:25;8.20;;;3.42;;